createdAt,value
2019-02-15T00:02:17.328Z,99.90
2019-02-15T00:04:45.961Z,99.90
2019-02-15T00:07:14.545Z,99.90
2019-02-15T00:09:43.105Z,99.90
2019-02-15T00:12:11.858Z,99.90
2019-02-15T00:14:48.453Z,99.90
2019-02-15T00:17:35.286Z,99.90
2019-02-15T00:20:06.710Z,99.90
2019-02-15T00:22:35.341Z,99.90
2019-02-15T00:25:04.301Z,99.90
2019-02-15T00:27:32.857Z,99.90
2019-02-15T00:30:01.446Z,99.90
2019-02-15T00:32:30.028Z,99.90
2019-02-15T00:34:58.706Z,99.90
2019-02-15T00:37:27.318Z,99.90
2019-02-15T00:39:55.878Z,99.90
2019-02-15T00:42:24.555Z,99.90
2019-02-15T00:44:53.174Z,99.90
2019-02-15T00:47:41.554Z,99.90
2019-02-15T00:50:11.822Z,99.90
2019-02-15T00:53:00.463Z,99.90
2019-02-15T00:55:36.438Z,99.90
2019-02-15T00:58:15.863Z,99.90
2019-02-15T01:00:51.789Z,99.90
2019-02-15T01:03:31.435Z,99.90
2019-02-15T01:06:07.751Z,99.90
2019-02-15T01:08:40.969Z,99.90
2019-02-15T01:11:11.170Z,99.90
2019-02-15T01:13:39.797Z,99.90
2019-02-15T01:16:08.385Z,99.90
2019-02-15T01:18:36.942Z,99.90
2019-02-15T01:21:05.606Z,99.90
2019-02-15T01:23:35.701Z,99.90
2019-02-15T01:26:05.970Z,99.90
2019-02-15T01:28:36.669Z,99.90
2019-02-15T01:31:06.878Z,99.90
2019-02-15T01:33:54.048Z,99.90
2019-02-15T01:36:30.222Z,99.90
2019-02-15T01:39:06.118Z,99.90
2019-02-15T01:41:39.108Z,99.90
2019-02-15T01:44:09.418Z,99.90
2019-02-15T01:46:39.768Z,99.90
2019-02-15T01:49:08.369Z,99.90
2019-02-15T01:51:37.000Z,99.90
2019-02-15T01:54:05.574Z,99.90
2019-02-15T01:56:35.254Z,99.90
2019-02-15T01:59:03.949Z,99.90
2019-02-15T02:01:32.767Z,99.90
2019-02-15T02:04:01.398Z,99.90
2019-02-15T02:06:30.026Z,99.90
2019-02-15T02:08:58.613Z,99.90
2019-02-15T02:11:27.254Z,99.90
2019-02-15T02:13:55.858Z,99.90
2019-02-15T02:16:24.418Z,99.90
2019-02-15T02:18:52.977Z,99.90
2019-02-15T02:21:21.718Z,99.90
2019-02-15T02:23:50.281Z,99.90
2019-02-15T02:26:19.027Z,99.90
2019-02-15T02:28:47.669Z,99.90
2019-02-15T02:31:16.373Z,99.90
2019-02-15T02:33:44.966Z,99.90
2019-02-15T02:36:13.588Z,99.90
2019-02-15T02:38:42.175Z,99.90
2019-02-15T02:41:10.729Z,99.90
2019-02-15T02:43:39.301Z,99.90
2019-02-15T02:46:07.888Z,99.90
2019-02-15T02:48:36.517Z,99.90
2019-02-15T02:51:05.495Z,99.90
2019-02-15T02:53:34.054Z,99.90
2019-02-15T02:56:02.607Z,99.90
2019-02-15T02:58:31.198Z,99.90
2019-02-15T03:00:59.844Z,99.90
2019-02-15T03:03:28.590Z,99.90
2019-02-15T03:05:57.149Z,99.90
2019-02-15T03:08:25.704Z,99.90
2019-02-15T03:10:54.691Z,99.90
2019-02-15T03:13:23.247Z,99.90
2019-02-15T03:15:51.818Z,99.90
2019-02-15T03:18:20.401Z,99.90
2019-02-15T03:20:49.020Z,99.90
2019-02-15T03:23:17.564Z,99.90
2019-02-15T03:25:46.285Z,99.90
2019-02-15T03:28:14.838Z,99.90
2019-02-15T03:30:43.406Z,99.90
2019-02-15T03:33:12.151Z,99.90
2019-02-15T03:35:42.348Z,99.90
2019-02-15T03:38:12.548Z,99.90
2019-02-15T03:40:41.208Z,99.90
2019-02-15T03:43:09.763Z,99.90
2019-02-15T03:45:38.362Z,99.90
2019-02-15T03:48:06.973Z,99.90
2019-02-15T03:50:35.481Z,99.90
2019-02-15T03:53:04.057Z,99.90
2019-02-15T03:55:32.773Z,99.90
2019-02-15T03:58:01.401Z,99.90
2019-02-15T04:00:30.024Z,99.90
2019-02-15T04:02:58.935Z,99.90
2019-02-15T04:05:27.496Z,99.90
2019-02-15T04:07:56.048Z,99.90
2019-02-15T04:10:24.716Z,99.90
2019-02-15T04:12:53.347Z,99.90
2019-02-15T04:15:21.988Z,99.90
2019-02-15T04:17:50.577Z,99.90
2019-02-15T04:20:19.192Z,99.90
2019-02-15T04:22:47.748Z,99.90
2019-02-15T04:25:16.477Z,99.90
2019-02-15T04:27:45.104Z,99.90
2019-02-15T04:30:13.720Z,99.90
2019-02-15T04:32:42.539Z,99.90
2019-02-15T04:35:11.192Z,99.90
2019-02-15T04:37:39.760Z,99.90
2019-02-15T04:40:10.121Z,99.90
2019-02-15T04:42:38.771Z,99.90
2019-02-15T04:45:08.454Z,99.90
2019-02-15T04:47:37.049Z,99.90
2019-02-15T04:50:08.217Z,99.90
2019-02-15T04:52:36.777Z,99.90
2019-02-15T04:55:06.929Z,99.90
2019-02-15T04:57:35.505Z,99.90
2019-02-15T05:00:05.329Z,99.90
2019-02-15T05:02:34.146Z,99.90
2019-02-15T05:05:02.807Z,99.90
2019-02-15T05:07:31.336Z,99.90
2019-02-15T05:09:59.916Z,99.90
2019-02-15T05:12:28.557Z,99.90
2019-02-15T05:14:57.106Z,99.90
2019-02-15T05:17:25.692Z,99.90
2019-02-15T05:19:54.256Z,99.90
2019-02-15T05:22:22.874Z,99.90
2019-02-15T05:24:51.462Z,99.90
2019-02-15T05:27:20.028Z,99.90
2019-02-15T05:29:48.585Z,99.90
2019-02-15T05:32:17.165Z,99.90
2019-02-15T05:34:45.719Z,99.90
2019-02-15T05:37:14.275Z,99.90
2019-02-15T05:39:42.849Z,99.90
2019-02-15T05:42:11.406Z,99.90
2019-02-15T05:44:39.971Z,99.90
2019-02-15T05:47:08.680Z,99.90
2019-02-15T05:49:37.235Z,99.90
2019-02-15T05:52:05.792Z,99.90
2019-02-15T05:54:34.389Z,99.90
2019-02-15T05:57:02.936Z,99.90
2019-02-15T05:59:31.573Z,99.90
2019-02-15T06:02:00.172Z,99.90
2019-02-15T06:04:28.719Z,99.90
2019-02-15T06:06:57.275Z,99.90
2019-02-15T06:09:25.871Z,99.90
2019-02-15T06:11:54.421Z,99.90
2019-02-15T06:14:23.079Z,99.90
2019-02-15T06:16:51.785Z,99.90
2019-02-15T06:19:20.428Z,99.90
2019-02-15T06:21:49.007Z,99.90
2019-02-15T06:24:17.744Z,99.90
2019-02-15T06:26:46.302Z,99.90
2019-02-15T06:29:14.877Z,99.90
2019-02-15T06:31:43.463Z,99.90
2019-02-15T06:34:12.103Z,99.90
2019-02-15T06:36:40.702Z,99.90
2019-02-15T06:39:09.433Z,99.90
2019-02-15T06:41:37.990Z,99.90
2019-02-15T06:44:06.641Z,99.90
2019-02-15T06:46:35.302Z,99.90
2019-02-15T06:49:03.855Z,99.90
2019-02-15T06:51:32.525Z,99.90
2019-02-15T06:54:01.121Z,99.90
2019-02-15T06:56:29.667Z,99.90
2019-02-15T06:59:12.233Z,99.90
2019-02-15T07:01:42.430Z,99.90
2019-02-15T07:04:12.630Z,99.90
2019-02-15T07:06:41.209Z,99.90
2019-02-15T07:09:09.768Z,99.90
2019-02-15T07:11:38.319Z,99.90
2019-02-15T07:14:06.924Z,99.90
2019-02-15T07:16:35.476Z,99.90
2019-02-15T07:19:04.032Z,99.90
2019-02-15T07:21:32.773Z,99.90
2019-02-15T07:24:01.328Z,99.90
2019-02-15T07:26:29.874Z,99.90
2019-02-15T07:28:58.457Z,99.90
2019-02-15T07:31:27.008Z,99.90
2019-02-15T07:33:55.564Z,99.90
2019-02-15T07:36:24.148Z,99.90
2019-02-15T07:38:52.764Z,99.90
2019-02-15T07:41:21.333Z,99.90
2019-02-15T07:43:49.919Z,99.90
2019-02-15T07:46:18.472Z,99.90
2019-02-15T07:48:47.024Z,99.90
2019-02-15T07:51:15.829Z,99.90
2019-02-15T07:53:44.444Z,99.90
2019-02-15T07:56:13.068Z,99.90
2019-02-15T07:58:41.652Z,99.90
2019-02-15T08:01:10.200Z,99.90
2019-02-15T08:03:38.752Z,99.90
2019-02-15T08:06:07.362Z,99.90
2019-02-15T08:08:35.922Z,99.90
2019-02-15T08:11:04.471Z,99.90
2019-02-15T08:13:33.148Z,99.90
2019-02-15T08:16:02.916Z,99.90
2019-02-15T08:18:31.630Z,99.90
2019-02-15T08:21:00.674Z,99.90
2019-02-15T08:23:29.195Z,99.90
2019-02-15T08:25:57.821Z,99.90
2019-02-15T08:28:26.684Z,97.00
2019-02-15T08:30:55.231Z,93.30
2019-02-15T08:33:23.784Z,86.50
2019-02-15T08:35:52.428Z,76.10
2019-02-15T08:38:20.993Z,69.20
2019-02-15T08:40:49.554Z,65.50
2019-02-15T08:43:18.205Z,58.50
2019-02-15T08:45:46.760Z,57.10
2019-02-15T08:48:15.435Z,57.00
2019-02-15T08:50:43.995Z,55.80
2019-02-15T08:53:12.615Z,54.90
2019-02-15T08:55:41.200Z,55.50
2019-02-15T08:58:11.325Z,56.70
2019-02-15T09:00:40.263Z,55.50
2019-02-15T09:03:08.844Z,55.20
2019-02-15T09:05:37.413Z,55.30
2019-02-15T09:08:05.995Z,55.50
2019-02-15T09:10:34.556Z,52.10
2019-02-15T09:13:03.425Z,51.10
2019-02-15T09:15:31.988Z,51.10
2019-02-15T09:18:00.533Z,49.80
2019-02-15T09:20:29.184Z,50.60
2019-02-15T09:22:57.750Z,50.70
2019-02-15T09:25:26.441Z,50.20
2019-02-15T09:28:12.980Z,49.80
2019-02-15T09:30:41.733Z,50.40
2019-02-15T09:33:10.366Z,51.10
2019-02-15T09:35:38.925Z,48.50
2019-02-15T09:38:07.584Z,46.20
2019-02-15T09:40:36.152Z,44.80
2019-02-15T09:43:05.017Z,44.50
2019-02-15T09:45:33.721Z,44.80
2019-02-15T09:48:02.346Z,42.50
2019-02-15T09:50:30.933Z,42.80
2019-02-15T09:52:59.562Z,42.30
2019-02-15T09:55:28.158Z,42.20
2019-02-15T09:57:56.709Z,41.70
2019-02-15T10:00:25.273Z,41.20
2019-02-15T10:02:53.869Z,42.00
2019-02-15T10:05:22.492Z,42.40
2019-02-15T10:07:51.093Z,42.60
2019-02-15T10:10:19.651Z,43.40
2019-02-15T10:12:48.265Z,41.50
2019-02-15T10:15:16.854Z,41.50
2019-02-15T10:17:45.416Z,40.20
2019-02-15T10:20:14.131Z,39.50
2019-02-15T10:22:42.906Z,40.40
2019-02-15T10:25:11.591Z,38.90
2019-02-15T10:27:40.160Z,39.20
2019-02-15T10:30:11.193Z,39.90
2019-02-15T10:32:39.757Z,39.60
2019-02-15T10:35:10.456Z,38.40
2019-02-15T10:37:39.173Z,36.70
2019-02-15T10:40:10.142Z,37.90
2019-02-15T10:42:38.768Z,38.70
2019-02-15T10:45:12.943Z,40.30
2019-02-15T10:47:41.579Z,39.70
2019-02-15T10:50:11.271Z,39.30
2019-02-15T10:52:39.943Z,38.50
2019-02-15T10:55:09.442Z,36.50
2019-02-15T10:57:38.068Z,38.20
2019-02-15T11:00:14.316Z,37.20
2019-02-15T11:02:42.880Z,36.50
2019-02-15T11:05:11.643Z,34.80
2019-02-15T11:07:40.237Z,33.80
2019-02-15T11:10:09.728Z,34.40
2019-02-15T11:12:38.348Z,34.60
2019-02-15T11:15:15.747Z,35.60
2019-02-15T11:17:44.384Z,35.20
2019-02-15T11:20:15.549Z,35.20
2019-02-15T11:22:44.103Z,35.30
2019-02-15T11:25:13.095Z,36.20
2019-02-15T11:27:41.884Z,35.80
2019-02-15T11:30:12.883Z,35.30
2019-02-15T11:32:41.432Z,33.40
2019-02-15T11:35:12.438Z,32.40
2019-02-15T11:37:41.071Z,32.80
2019-02-15T11:40:11.978Z,30.60
2019-02-15T11:42:40.572Z,31.30
2019-02-15T11:45:13.292Z,30.10
2019-02-15T11:47:41.852Z,31.40
2019-02-15T11:50:12.381Z,31.50
2019-02-15T11:52:41.071Z,31.30
2019-02-15T11:55:11.005Z,30.00
2019-02-15T11:57:39.624Z,28.80
2019-02-15T12:00:14.999Z,29.90
2019-02-15T12:02:43.754Z,30.90
2019-02-15T12:05:12.476Z,29.70
2019-02-15T12:07:41.420Z,29.80
2019-02-15T12:10:11.217Z,28.80
2019-02-15T12:12:39.957Z,31.00
2019-02-15T12:15:11.504Z,31.10
2019-02-15T12:17:40.197Z,30.30
2019-02-15T12:20:13.501Z,32.60
2019-02-15T12:22:42.129Z,31.10
2019-02-15T12:25:10.820Z,31.40
2019-02-15T12:27:39.504Z,31.10
2019-02-15T12:30:13.051Z,31.00
2019-02-15T12:32:41.673Z,30.90
2019-02-15T12:35:11.004Z,30.60
2019-02-15T12:37:39.630Z,29.90
2019-02-15T12:40:10.727Z,30.00
2019-02-15T12:42:39.424Z,30.50
2019-02-15T12:45:13.378Z,31.00
2019-02-15T12:47:42.034Z,30.50
2019-02-15T12:50:18.639Z,31.40
2019-02-15T12:52:47.263Z,31.80
2019-02-15T12:55:15.884Z,32.40
2019-02-15T12:57:44.682Z,32.00
2019-02-15T13:00:15.348Z,33.40
2019-02-15T13:02:44.042Z,35.10
2019-02-15T13:05:14.255Z,34.20
2019-02-15T13:07:42.811Z,33.60
2019-02-15T13:10:16.962Z,33.00
2019-02-15T13:12:45.784Z,32.60
2019-02-15T13:15:14.581Z,32.60
2019-02-15T13:17:43.175Z,33.00
2019-02-15T13:20:11.973Z,33.40
2019-02-15T13:22:40.585Z,32.90
2019-02-15T13:25:09.407Z,33.10
2019-02-15T13:27:38.207Z,33.50
2019-02-15T13:30:09.870Z,33.10
2019-02-15T13:32:38.452Z,33.40
2019-02-15T13:35:09.955Z,32.20
2019-02-15T13:37:38.610Z,30.80
2019-02-15T13:40:08.997Z,30.30
2019-02-15T13:42:37.975Z,29.90
2019-02-15T13:45:11.672Z,30.00
2019-02-15T13:47:40.299Z,29.50
2019-02-15T13:50:14.221Z,29.60
2019-02-15T13:52:42.885Z,31.40
2019-02-15T13:55:11.633Z,29.40
2019-02-15T13:57:40.357Z,30.00
2019-02-15T14:00:11.817Z,30.30
2019-02-15T14:02:40.511Z,30.00
2019-02-15T14:05:10.827Z,29.50
2019-02-15T14:07:39.505Z,29.50
2019-02-15T14:10:12.850Z,30.00
2019-02-15T14:12:41.471Z,29.60
2019-02-15T14:15:13.192Z,31.60
2019-02-15T14:17:45.460Z,32.80
2019-02-15T14:20:14.409Z,33.70
2019-02-15T14:22:43.033Z,36.00
2019-02-15T14:25:13.238Z,36.50
2019-02-15T14:27:41.929Z,37.70
2019-02-15T14:30:14.201Z,37.50
2019-02-15T14:32:43.109Z,38.30
2019-02-15T14:35:14.275Z,40.00
2019-02-15T14:37:42.983Z,40.20
2019-02-15T14:40:12.669Z,40.70
2019-02-15T14:42:41.286Z,42.50
2019-02-15T14:45:12.246Z,42.80
2019-02-15T14:47:41.308Z,43.40
2019-02-15T14:50:10.999Z,43.20
2019-02-15T14:52:39.681Z,44.80
2019-02-15T14:55:09.812Z,45.50
2019-02-15T14:57:38.523Z,45.90
2019-02-15T15:00:10.219Z,47.90
2019-02-15T15:02:38.813Z,46.40
2019-02-15T15:05:08.494Z,46.90
2019-02-15T15:07:37.667Z,48.10
2019-02-15T15:10:08.666Z,49.20
2019-02-15T15:12:37.214Z,49.60
2019-02-15T15:15:11.799Z,51.20
2019-02-15T15:17:40.454Z,51.20
2019-02-15T15:20:11.252Z,52.50
2019-02-15T15:22:39.804Z,52.90
2019-02-15T15:25:13.162Z,53.20
2019-02-15T15:27:41.972Z,52.50
2019-02-15T15:30:12.736Z,53.10
2019-02-15T15:32:41.352Z,53.60
2019-02-15T15:35:11.585Z,54.00
2019-02-15T15:37:40.210Z,54.00
2019-02-15T15:40:19.247Z,54.30
2019-02-15T15:42:47.948Z,54.40
2019-02-15T15:45:16.567Z,55.60
2019-02-15T15:47:45.657Z,54.00
2019-02-15T15:50:14.667Z,55.10
2019-02-15T15:52:43.248Z,56.00
2019-02-15T15:55:13.388Z,58.60
2019-02-15T15:57:42.007Z,61.90
2019-02-15T16:00:13.196Z,62.80
2019-02-15T16:02:41.987Z,66.50
2019-02-15T16:05:12.240Z,67.20
2019-02-15T16:07:43.258Z,69.70
2019-02-15T16:10:13.007Z,72.90
2019-02-15T16:12:41.628Z,74.70
2019-02-15T16:15:12.492Z,76.80
2019-02-15T16:17:41.146Z,78.60
2019-02-15T16:20:13.662Z,79.30
2019-02-15T16:22:42.282Z,83.90
2019-02-15T16:25:11.489Z,82.50
2019-02-15T16:27:40.180Z,84.10
2019-02-15T16:30:11.732Z,85.90
2019-02-15T16:32:40.557Z,88.30
2019-02-15T16:35:09.544Z,88.90
2019-02-15T16:37:38.248Z,90.40
2019-02-15T16:40:11.774Z,90.70
2019-02-15T16:42:40.575Z,92.10
2019-02-15T16:45:13.996Z,92.30
2019-02-15T16:47:42.724Z,92.90
2019-02-15T16:50:11.608Z,93.40
2019-02-15T16:52:40.177Z,93.90
2019-02-15T16:55:12.754Z,94.50
2019-02-15T16:57:39.952Z,94.30
2019-02-15T17:00:11.236Z,94.60
2019-02-15T17:02:39.888Z,95.10
2019-02-15T17:05:08.644Z,95.40
2019-02-15T17:07:37.264Z,95.70
2019-02-15T17:10:08.500Z,96.00
2019-02-15T17:12:37.116Z,96.60
2019-02-15T17:15:08.817Z,96.80
2019-02-15T17:17:37.476Z,97.10
2019-02-15T17:20:08.363Z,97.40
2019-02-15T17:22:37.109Z,97.50
2019-02-15T17:25:08.786Z,97.60
2019-02-15T17:27:37.350Z,97.60
2019-02-15T17:30:10.519Z,97.80
2019-02-15T17:32:39.243Z,97.80
2019-02-15T17:35:09.931Z,98.20
2019-02-15T17:37:38.628Z,98.30
2019-02-15T17:40:15.721Z,98.30
2019-02-15T17:42:44.342Z,98.50
2019-02-15T17:45:13.229Z,98.80
2019-02-15T17:47:41.884Z,98.80
2019-02-15T17:50:11.684Z,99.00
2019-02-15T17:52:40.364Z,98.80
2019-02-15T17:55:10.281Z,99.00
2019-02-15T17:57:38.964Z,99.00
2019-02-15T18:00:16.332Z,99.10
2019-02-15T18:02:44.885Z,99.30
2019-02-15T18:05:18.977Z,98.90
2019-02-15T18:07:50.191Z,98.60
2019-02-15T18:10:18.759Z,98.30
2019-02-15T18:12:47.360Z,98.20
2019-02-15T18:15:16.076Z,98.60
2019-02-15T18:17:44.697Z,98.50
2019-02-15T18:20:13.382Z,98.20
2019-02-15T18:22:42.041Z,97.90
2019-02-15T18:25:10.728Z,98.10
2019-02-15T18:27:39.348Z,98.10
2019-02-15T18:30:14.071Z,98.00
2019-02-15T18:32:42.697Z,97.90
2019-02-15T18:35:11.313Z,98.20
2019-02-15T18:37:39.964Z,97.70
2019-02-15T18:40:10.254Z,97.80
2019-02-15T18:42:38.888Z,97.30
2019-02-15T18:45:10.745Z,97.50
2019-02-15T18:47:39.292Z,97.60
2019-02-15T18:50:09.589Z,98.00
2019-02-15T18:52:38.282Z,97.90
2019-02-15T18:55:11.659Z,97.80
2019-02-15T18:57:40.199Z,97.80
2019-02-15T19:00:16.147Z,97.80
2019-02-15T19:02:47.809Z,98.00
2019-02-15T19:05:16.416Z,98.70
2019-02-15T19:07:45.423Z,98.80
2019-02-15T19:10:16.779Z,99.00
2019-02-15T19:12:45.469Z,99.20
2019-02-15T19:15:16.428Z,99.20
2019-02-15T19:17:45.052Z,99.30
2019-02-15T19:20:17.217Z,99.80
2019-02-15T19:22:46.039Z,99.80
2019-02-15T19:25:16.538Z,99.80
2019-02-15T19:27:45.076Z,99.80
2019-02-15T19:30:22.458Z,99.80
2019-02-15T19:32:51.008Z,99.80
2019-02-15T19:35:19.629Z,99.90
2019-02-15T19:37:48.235Z,99.40
2019-02-15T19:40:19.123Z,99.50
2019-02-15T19:42:49.532Z,99.40
2019-02-15T19:45:18.349Z,99.40
2019-02-15T19:47:47.116Z,99.00
2019-02-15T19:50:17.595Z,99.10
2019-02-15T19:52:48.116Z,98.90
2019-02-15T19:55:16.802Z,99.20
2019-02-15T19:57:45.495Z,99.40
2019-02-15T20:00:19.249Z,99.20
2019-02-15T20:02:48.048Z,99.30
2019-02-15T20:05:16.606Z,98.90
2019-02-15T20:07:45.266Z,98.90
2019-02-15T20:10:19.622Z,99.10
2019-02-15T20:12:48.172Z,99.10
2019-02-15T20:15:17.070Z,99.40
2019-02-15T20:17:45.694Z,99.30
2019-02-15T20:20:15.776Z,99.40
2019-02-15T20:22:44.368Z,99.20
2019-02-15T20:25:13.666Z,99.80
2019-02-15T20:27:42.463Z,99.70
2019-02-15T20:30:17.203Z,99.70
2019-02-15T20:32:45.824Z,99.90
2019-02-15T20:35:14.384Z,99.90
2019-02-15T20:37:43.107Z,99.90
2019-02-15T20:40:12.693Z,99.90
2019-02-15T20:42:44.753Z,99.90
2019-02-15T20:45:23.596Z,99.90
2019-02-15T20:47:52.153Z,99.90
2019-02-15T20:50:21.031Z,99.90
2019-02-15T20:52:49.618Z,99.90
2019-02-15T20:55:22.047Z,99.90
2019-02-15T20:57:50.588Z,99.90
2019-02-15T21:00:22.010Z,99.90
2019-02-15T21:02:50.705Z,99.90
2019-02-15T21:05:19.391Z,99.90
2019-02-15T21:07:48.177Z,99.90
2019-02-15T21:10:16.736Z,99.90
2019-02-15T21:12:45.300Z,99.90
2019-02-15T21:15:14.993Z,99.90
2019-02-15T21:17:43.688Z,99.90
2019-02-15T21:20:14.358Z,99.90
2019-02-15T21:22:43.497Z,99.90
2019-02-15T21:25:14.750Z,99.90
2019-02-15T21:27:43.443Z,99.90
2019-02-15T21:30:14.916Z,99.90
2019-02-15T21:32:43.617Z,99.90
2019-02-15T21:35:12.405Z,99.90
2019-02-15T21:37:41.123Z,99.90
2019-02-15T21:40:19.512Z,99.90
2019-02-15T21:42:48.656Z,99.90
2019-02-15T21:45:17.280Z,99.90
2019-02-15T21:47:45.903Z,99.90
2019-02-15T21:50:17.524Z,99.90
2019-02-15T21:52:44.950Z,99.90
2019-02-15T21:55:15.345Z,99.90
2019-02-15T21:57:43.926Z,99.90
2019-02-15T22:00:21.212Z,99.90
2019-02-15T22:02:52.823Z,99.90
2019-02-15T22:05:22.927Z,99.90
2019-02-15T22:07:52.135Z,99.90
2019-02-15T22:10:20.769Z,99.90
2019-02-15T22:12:50.978Z,99.90
2019-02-15T22:15:19.678Z,99.90
2019-02-15T22:17:48.276Z,99.90
2019-02-15T22:20:25.916Z,99.90
2019-02-15T22:22:47.768Z,99.90
2019-02-15T22:25:16.575Z,99.90
2019-02-15T22:27:45.194Z,99.90
2019-02-15T22:30:18.368Z,99.90
2019-02-15T22:32:47.293Z,99.90
2019-02-15T22:35:15.835Z,99.90
2019-02-15T22:37:44.462Z,99.90
2019-02-15T22:40:35.616Z,99.90
2019-02-15T22:43:07.308Z,99.90
2019-02-15T22:45:39.400Z,99.90
2019-02-15T22:48:08.100Z,99.90
2019-02-15T22:50:36.770Z,99.90
2019-02-15T22:53:05.391Z,99.90
2019-02-15T22:55:36.496Z,99.90
2019-02-15T22:58:05.068Z,99.90
2019-02-15T23:00:46.580Z,99.90
2019-02-15T23:03:17.801Z,99.90
2019-02-15T23:05:46.515Z,99.90
2019-02-15T23:08:15.216Z,99.90
2019-02-15T23:10:44.019Z,99.90
2019-02-15T23:13:12.568Z,99.90
2019-02-15T23:15:41.217Z,99.90
2019-02-15T23:18:09.772Z,99.90
2019-02-15T23:20:44.838Z,99.90
2019-02-15T23:23:11.833Z,99.90
2019-02-15T23:25:40.395Z,99.90
2019-02-15T23:28:12.521Z,99.90
2019-02-15T23:30:41.209Z,99.90
2019-02-15T23:33:09.764Z,99.90
2019-02-15T23:35:38.512Z,99.90
2019-02-15T23:38:10.345Z,99.90
2019-02-15T23:40:38.960Z,99.90
2019-02-15T23:43:07.586Z,99.90
2019-02-15T23:45:36.166Z,99.90
2019-02-15T23:48:08.074Z,99.90
2019-02-15T23:50:36.668Z,99.90
2019-02-15T23:53:05.433Z,99.90
2019-02-15T23:55:33.984Z,99.90
2019-02-15T23:58:02.554Z,99.90
